WUH weather

Wuhan Tianhe International Airport
Wuhan, Hubei Province, China

Public forecast

Using degrees Celsius for public forecast. Weather courtesy of forecast.io.

Current aviation weather report (METAR) for Wuhan Tianhe International Airport

Retrieved 2020/06/05 18:00 UTC (31 minutes ago):

ZHHH 051800Z 07004MPS CAVOK 25/22 Q1003 NOSIG

Aviation forecast (TAF) for Wuhan Tianhe International Airport

Retrieved 2020/06/05 18:03 UTC (28 minutes ago):

TAF ZHHH 051502Z 0518/0618 08003MPS 6000 SCT020 TX33/0607Z TN23/0522Z